createdAt,value
2018-08-13T00:01:53.963Z,14.50
2018-08-13T00:04:22.407Z,14.50
2018-08-13T00:06:50.862Z,14.50
2018-08-13T00:09:50.941Z,14.40
2018-08-13T00:12:19.369Z,14.40
2018-08-13T00:14:47.830Z,14.40
2018-08-13T00:17:16.258Z,14.30
2018-08-13T00:19:44.780Z,14.30
2018-08-13T00:22:13.275Z,14.30
2018-08-13T00:24:41.823Z,14.20
2018-08-13T00:27:10.339Z,14.20
2018-08-13T00:29:38.852Z,14.10
2018-08-13T00:32:07.361Z,14.10
2018-08-13T00:34:35.860Z,14.10
2018-08-13T00:37:04.370Z,14.00
2018-08-13T00:39:32.849Z,14.00
2018-08-13T00:42:01.367Z,14.00
2018-08-13T00:44:29.859Z,14.00
2018-08-13T00:46:58.338Z,13.90
2018-08-13T00:49:26.846Z,13.90
2018-08-13T00:51:55.314Z,13.90
2018-08-13T00:54:23.831Z,13.80
2018-08-13T00:56:52.289Z,13.80
2018-08-13T00:59:20.780Z,13.70
2018-08-13T01:01:49.263Z,13.70
2018-08-13T01:04:17.787Z,13.70
2018-08-13T01:06:46.273Z,13.60
2018-08-13T01:09:14.846Z,13.60
2018-08-13T01:11:43.343Z,13.60
2018-08-13T01:14:11.824Z,13.50
2018-08-13T01:16:40.311Z,13.50
2018-08-13T01:19:08.827Z,13.40
2018-08-13T01:21:37.335Z,13.40
2018-08-13T01:24:06.327Z,13.30
2018-08-13T01:26:34.798Z,13.30
2018-08-13T01:29:03.330Z,13.20
2018-08-13T01:31:31.760Z,13.20
2018-08-13T01:34:00.228Z,13.10
2018-08-13T01:36:28.675Z,13.10
2018-08-13T01:38:57.138Z,13.10
2018-08-13T01:41:25.594Z,13.00
2018-08-13T01:43:54.075Z,13.00
2018-08-13T01:46:22.515Z,13.00
2018-08-13T01:48:50.945Z,12.90
2018-08-13T01:51:19.407Z,13.00
2018-08-13T01:53:47.837Z,12.90
2018-08-13T01:56:16.299Z,12.90
2018-08-13T01:58:44.707Z,12.90
2018-08-13T02:01:13.277Z,12.80
2018-08-13T02:03:41.677Z,12.80
2018-08-13T02:06:10.155Z,12.80
2018-08-13T02:08:38.585Z,12.80
2018-08-13T02:11:07.049Z,12.80
2018-08-13T02:13:35.485Z,12.80
2018-08-13T02:16:04.014Z,12.80
2018-08-13T02:18:32.483Z,12.70
2018-08-13T02:21:00.990Z,12.70
2018-08-13T02:23:29.428Z,12.70
2018-08-13T02:25:57.932Z,12.70
2018-08-13T02:28:26.391Z,12.70
2018-08-13T02:30:54.906Z,12.80
2018-08-13T02:33:23.429Z,12.70
2018-08-13T02:35:51.868Z,12.70
2018-08-13T02:38:20.334Z,12.60
2018-08-13T02:40:48.848Z,12.60
2018-08-13T02:43:17.403Z,12.60
2018-08-13T02:45:45.857Z,12.50
2018-08-13T02:48:14.356Z,12.50
2018-08-13T02:50:42.833Z,12.50
2018-08-13T02:53:11.292Z,12.50
2018-08-13T02:55:39.739Z,12.50
2018-08-13T02:58:08.256Z,12.50
2018-08-13T03:00:36.702Z,12.50
2018-08-13T03:03:06.277Z,12.50
2018-08-13T03:05:34.761Z,12.50
2018-08-13T03:08:03.233Z,12.50
2018-08-13T03:10:31.714Z,12.50
2018-08-13T03:13:00.166Z,12.50
2018-08-13T03:15:28.650Z,12.50
2018-08-13T03:17:57.104Z,12.50
2018-08-13T03:20:26.105Z,12.40
2018-08-13T03:22:54.567Z,12.40
2018-08-13T03:25:23.398Z,12.40
2018-08-13T03:27:51.827Z,12.30
2018-08-13T03:30:20.318Z,12.30
2018-08-13T03:32:48.748Z,12.30
2018-08-13T03:35:17.203Z,12.30
2018-08-13T03:37:45.664Z,12.20
2018-08-13T03:40:14.227Z,12.20
2018-08-13T03:42:42.691Z,12.10
2018-08-13T03:45:12.242Z,12.10
2018-08-13T03:47:40.829Z,12.10
2018-08-13T03:50:10.701Z,12.00
2018-08-13T03:52:39.168Z,12.00
2018-08-13T03:55:09.217Z,12.00
2018-08-13T03:57:37.719Z,11.90
2018-08-13T04:00:09.600Z,11.90
2018-08-13T04:02:38.097Z,11.90
2018-08-13T04:05:14.263Z,11.90
2018-08-13T04:07:42.841Z,11.90
2018-08-13T04:10:12.462Z,11.80
2018-08-13T04:12:42.199Z,11.80
2018-08-13T04:15:12.095Z,11.80
2018-08-13T04:17:40.596Z,11.80
2018-08-13T04:20:10.786Z,11.80
2018-08-13T04:22:39.258Z,11.80
2018-08-13T04:25:13.871Z,11.80
2018-08-13T04:27:42.839Z,11.90
2018-08-13T04:30:15.606Z,11.90
2018-08-13T04:32:45.109Z,11.90
2018-08-13T04:35:13.640Z,12.00
2018-08-13T04:37:43.107Z,12.10
2018-08-13T04:40:13.491Z,12.10
2018-08-13T04:42:43.095Z,12.20
2018-08-13T04:45:11.700Z,12.30
2018-08-13T04:47:40.703Z,12.40
2018-08-13T04:50:10.588Z,12.50
2018-08-13T04:52:39.057Z,12.60
2018-08-13T04:55:09.086Z,12.70
2018-08-13T04:57:37.561Z,12.80
2018-08-13T05:00:06.756Z,12.90
2018-08-13T05:02:35.263Z,13.00
2018-08-13T05:05:04.756Z,13.20
2018-08-13T05:07:33.235Z,13.30
2018-08-13T05:10:01.660Z,13.40
2018-08-13T05:12:30.138Z,13.70
2018-08-13T05:14:58.579Z,14.00
2018-08-13T05:17:27.086Z,14.40
2018-08-13T05:19:55.621Z,14.80
2018-08-13T05:22:24.115Z,15.20
2018-08-13T05:24:52.617Z,15.50
2018-08-13T05:27:21.125Z,15.90
2018-08-13T05:29:49.633Z,16.10
2018-08-13T05:32:18.148Z,16.20
2018-08-13T05:34:46.670Z,16.20
2018-08-13T05:37:15.184Z,16.30
2018-08-13T05:39:43.666Z,16.40
2018-08-13T05:42:12.213Z,16.50
2018-08-13T05:44:40.707Z,16.60
2018-08-13T05:47:09.193Z,16.80
2018-08-13T05:49:37.671Z,16.90
2018-08-13T05:52:06.218Z,17.00
2018-08-13T05:54:34.754Z,17.20
2018-08-13T05:57:03.221Z,17.70
2018-08-13T05:59:31.735Z,18.40
2018-08-13T06:02:00.215Z,19.10
2018-08-13T06:04:28.764Z,19.80
2018-08-13T06:06:57.383Z,20.40
2018-08-13T06:09:25.877Z,21.00
2018-08-13T06:11:54.359Z,21.70
2018-08-13T06:14:22.821Z,22.40
2018-08-13T06:16:51.326Z,22.80
2018-08-13T06:19:20.202Z,23.20
2018-08-13T06:21:48.701Z,23.90
2018-08-13T06:24:17.364Z,24.30
2018-08-13T06:26:45.891Z,24.70
2018-08-13T06:29:14.435Z,25.20
2018-08-13T06:31:43.219Z,25.80
2018-08-13T06:34:11.757Z,26.50
2018-08-13T06:36:40.295Z,26.60
2018-08-13T06:39:10.087Z,26.90
2018-08-13T06:41:38.558Z,27.30
2018-08-13T06:44:07.114Z,27.80
2018-08-13T06:46:36.344Z,28.10
2018-08-13T06:49:05.243Z,28.70
2018-08-13T06:51:33.839Z,28.80
2018-08-13T06:54:02.343Z,29.30
2018-08-13T06:56:31.148Z,29.60
2018-08-13T06:58:59.636Z,29.60
2018-08-13T07:01:28.263Z,30.20
2018-08-13T07:03:56.768Z,30.90
2018-08-13T07:06:25.258Z,31.00
2018-08-13T07:08:53.815Z,31.40
2018-08-13T07:11:22.334Z,31.80
2018-08-13T07:13:50.879Z,31.90
2018-08-13T07:16:19.358Z,32.60
2018-08-13T07:18:47.917Z,31.60
2018-08-13T07:21:16.431Z,31.70
2018-08-13T07:23:44.929Z,32.00
2018-08-13T07:26:13.387Z,31.80
2018-08-13T07:28:41.956Z,31.30
2018-08-13T07:31:10.455Z,30.50
2018-08-13T07:33:38.920Z,30.50
2018-08-13T07:36:07.488Z,31.90
2018-08-13T07:38:35.979Z,32.40
2018-08-13T07:41:04.486Z,32.60
2018-08-13T07:43:33.035Z,33.30
2018-08-13T07:46:01.544Z,33.70
2018-08-13T07:48:29.993Z,34.20
2018-08-13T07:50:58.515Z,34.10
2018-08-13T07:53:27.046Z,34.60
2018-08-13T07:55:55.612Z,35.00
2018-08-13T07:58:24.124Z,35.40
2018-08-13T08:00:52.767Z,35.70
2018-08-13T08:03:21.235Z,34.30
2018-08-13T08:05:49.831Z,33.50
2018-08-13T08:08:18.391Z,32.60
2018-08-13T08:10:46.991Z,34.40
2018-08-13T08:13:15.474Z,33.40
2018-08-13T08:15:44.107Z,33.60
2018-08-13T08:18:12.573Z,32.80
2018-08-13T08:20:41.150Z,33.20
2018-08-13T08:23:09.679Z,32.60
2018-08-13T08:25:38.231Z,32.90
2018-08-13T08:28:06.738Z,33.20
2018-08-13T08:30:35.375Z,33.30
2018-08-13T08:33:04.803Z,33.40
2018-08-13T08:35:33.518Z,32.50
2018-08-13T08:38:02.067Z,32.40
2018-08-13T08:40:30.745Z,32.70
2018-08-13T08:42:59.294Z,32.40
2018-08-13T08:45:28.098Z,32.30
2018-08-13T08:47:57.240Z,33.20
2018-08-13T08:50:26.569Z,34.50
2018-08-13T08:52:55.193Z,34.70
2018-08-13T08:55:23.751Z,34.80
2018-08-13T08:57:52.310Z,34.60
2018-08-13T09:00:22.786Z,34.40
2018-08-13T09:02:51.627Z,35.20
2018-08-13T09:05:20.330Z,35.10
2018-08-13T09:07:48.995Z,35.20
2018-08-13T09:10:17.630Z,35.70
2018-08-13T09:12:46.206Z,35.90
2018-08-13T09:15:16.332Z,36.60
2018-08-13T09:17:56.972Z,35.80
2018-08-13T09:20:36.724Z,36.40
2018-08-13T09:23:16.271Z,35.30
2018-08-13T09:25:56.007Z,35.30
2018-08-13T09:29:37.151Z,35.90
2018-08-13T09:32:19.998Z,35.90
2018-08-13T09:35:26.457Z,35.30
2018-08-13T09:37:55.736Z,35.30
2018-08-13T09:40:24.738Z,35.10
2018-08-13T09:42:53.296Z,35.90
2018-08-13T09:45:21.803Z,36.40
2018-08-13T09:47:50.307Z,36.10
2018-08-13T09:50:19.507Z,37.00
2018-08-13T09:52:48.604Z,37.00
2018-08-13T09:55:17.674Z,37.10
2018-08-13T09:57:47.081Z,36.70
2018-08-13T10:00:23.377Z,36.10
2018-08-13T10:02:51.783Z,36.20
2018-08-13T10:05:20.302Z,35.90
2018-08-13T10:07:48.787Z,35.70
2018-08-13T10:10:17.882Z,34.90
2018-08-13T10:12:46.674Z,34.80
2018-08-13T10:15:15.340Z,35.10
2018-08-13T10:17:43.908Z,35.70
2018-08-13T10:20:18.304Z,35.80
2018-08-13T10:22:47.039Z,35.70
2018-08-13T10:25:15.676Z,36.50
2018-08-13T10:27:44.231Z,36.40
2018-08-13T10:30:14.659Z,36.40
2018-08-13T10:32:43.269Z,36.10
2018-08-13T10:35:11.787Z,35.40
2018-08-13T10:37:41.022Z,36.20
2018-08-13T10:40:11.569Z,37.10
2018-08-13T10:42:40.112Z,37.50
2018-08-13T10:45:08.972Z,36.90
2018-08-13T10:47:37.478Z,37.30
2018-08-13T10:50:07.294Z,38.30
2018-08-13T10:52:35.810Z,38.80
2018-08-13T10:55:04.642Z,38.70
2018-08-13T10:57:33.128Z,38.60
2018-08-13T11:00:01.724Z,39.30
2018-08-13T11:02:30.229Z,39.30
2018-08-13T11:04:58.718Z,39.60
2018-08-13T11:07:27.203Z,39.60
2018-08-13T11:09:55.736Z,39.40
2018-08-13T11:12:24.220Z,39.20
2018-08-13T11:14:52.707Z,39.40
2018-08-13T11:17:21.254Z,39.10
2018-08-13T11:19:49.730Z,39.30
2018-08-13T11:22:18.617Z,38.90
2018-08-13T11:24:47.338Z,38.60
2018-08-13T11:27:15.950Z,39.30
2018-08-13T11:29:45.838Z,38.50
2018-08-13T11:32:14.284Z,38.80
2018-08-13T11:34:43.114Z,38.70
2018-08-13T11:37:11.595Z,39.30
2018-08-13T11:39:40.335Z,39.10
2018-08-13T11:42:08.829Z,39.40
2018-08-13T11:44:37.321Z,38.70
2018-08-13T11:47:05.773Z,39.00
2018-08-13T11:49:34.302Z,39.00
2018-08-13T11:52:02.815Z,38.60
2018-08-13T11:54:31.296Z,37.30
2018-08-13T11:56:59.727Z,36.90
2018-08-13T11:59:28.807Z,35.10
2018-08-13T12:01:57.332Z,34.30
2018-08-13T12:04:25.801Z,33.80
2018-08-13T12:06:54.287Z,35.00
2018-08-13T12:09:22.898Z,35.10
2018-08-13T12:11:51.427Z,34.70
2018-08-13T12:14:19.893Z,34.00
2018-08-13T12:16:48.384Z,33.70
2018-08-13T12:19:16.866Z,33.80
2018-08-13T12:21:45.415Z,34.40
2018-08-13T12:24:13.922Z,35.00
2018-08-13T12:26:42.439Z,35.60
2018-08-13T12:29:10.943Z,35.90
2018-08-13T12:31:39.445Z,36.60
2018-08-13T12:34:07.946Z,35.90
2018-08-13T12:36:36.473Z,35.20
2018-08-13T12:39:08.719Z,34.40
2018-08-13T12:41:37.321Z,33.20
2018-08-13T12:44:05.960Z,32.80
2018-08-13T12:46:34.458Z,32.80
2018-08-13T12:49:02.938Z,32.40
2018-08-13T12:51:31.443Z,32.40
2018-08-13T12:53:59.996Z,32.40
2018-08-13T12:56:28.601Z,33.50
2018-08-13T12:58:57.324Z,33.70
2018-08-13T13:01:25.920Z,33.70
2018-08-13T13:03:54.960Z,33.40
2018-08-13T13:06:23.527Z,33.50
2018-08-13T13:08:52.062Z,33.70
2018-08-13T13:11:20.592Z,33.70
2018-08-13T13:13:49.107Z,34.00
2018-08-13T13:16:17.601Z,34.10
2018-08-13T13:18:46.288Z,34.30
2018-08-13T13:21:14.933Z,34.70
2018-08-13T13:23:43.402Z,34.50
2018-08-13T13:26:11.916Z,34.30
2018-08-13T13:28:41.086Z,34.20
2018-08-13T13:31:09.872Z,34.00
2018-08-13T13:33:38.444Z,33.30
2018-08-13T13:36:07.296Z,32.70
2018-08-13T13:38:35.783Z,32.60
2018-08-13T13:41:04.412Z,32.20
2018-08-13T13:43:33.271Z,31.90
2018-08-13T13:46:01.920Z,32.10
2018-08-13T13:48:30.374Z,32.00
2018-08-13T13:50:58.908Z,31.90
2018-08-13T13:53:28.103Z,31.60
2018-08-13T13:55:56.663Z,31.60
2018-08-13T13:58:25.243Z,30.90
2018-08-13T14:00:53.859Z,30.60
2018-08-13T14:03:22.363Z,30.40
2018-08-13T14:05:50.930Z,30.30
2018-08-13T14:08:19.366Z,30.10
2018-08-13T14:10:47.997Z,30.00
2018-08-13T14:13:16.514Z,29.70
2018-08-13T14:15:45.046Z,29.30
2018-08-13T14:18:13.566Z,29.10
2018-08-13T14:20:42.096Z,28.90
2018-08-13T14:23:10.799Z,28.70
2018-08-13T14:25:39.366Z,28.70
2018-08-13T14:28:07.909Z,28.70
2018-08-13T14:30:36.504Z,28.80
2018-08-13T14:33:05.036Z,28.70
2018-08-13T14:35:33.529Z,28.80
2018-08-13T14:38:02.081Z,28.50
2018-08-13T14:40:30.531Z,28.60
2018-08-13T14:42:59.023Z,28.60
2018-08-13T14:45:27.536Z,28.50
2018-08-13T14:47:56.051Z,28.60
2018-08-13T14:50:24.566Z,28.50
2018-08-13T14:52:53.098Z,28.50
2018-08-13T14:55:22.413Z,28.40
2018-08-13T14:57:50.970Z,28.60
2018-08-13T15:00:23.494Z,28.30
2018-08-13T15:02:52.665Z,28.30
2018-08-13T15:05:21.180Z,28.20
2018-08-13T15:07:49.726Z,28.10
2018-08-13T15:10:20.920Z,27.70
2018-08-13T15:12:49.477Z,27.50
2018-08-13T15:15:17.994Z,27.40
2018-08-13T15:17:46.590Z,27.10
2018-08-13T15:20:24.414Z,27.00
2018-08-13T15:22:53.052Z,26.60
2018-08-13T15:25:21.650Z,26.30
2018-08-13T15:27:50.218Z,26.20
2018-08-13T15:30:19.506Z,26.00
2018-08-13T15:32:48.847Z,25.80
2018-08-13T15:35:17.427Z,25.60
2018-08-13T15:37:47.026Z,25.40
2018-08-13T15:40:15.662Z,25.10
2018-08-13T15:42:44.137Z,25.00
2018-08-13T15:45:14.704Z,24.80
2018-08-13T15:47:43.261Z,24.40
2018-08-13T15:50:13.440Z,23.90
2018-08-13T15:52:42.362Z,23.30
2018-08-13T15:55:11.032Z,22.60
2018-08-13T15:57:39.999Z,22.10
2018-08-13T16:00:10.115Z,21.60
2018-08-13T16:02:38.598Z,21.00
2018-08-13T16:05:08.401Z,20.70
2018-08-13T16:07:36.910Z,20.40
2018-08-13T16:10:07.783Z,20.00
2018-08-13T16:12:36.425Z,19.80
2018-08-13T16:15:05.783Z,19.40
2018-08-13T16:17:34.494Z,19.20
2018-08-13T16:20:03.216Z,18.90
2018-08-13T16:22:31.685Z,18.80
2018-08-13T16:25:00.134Z,18.60
2018-08-13T16:27:28.616Z,18.60
2018-08-13T16:29:57.131Z,18.60
2018-08-13T16:32:26.291Z,18.60
2018-08-13T16:34:54.820Z,18.50
2018-08-13T16:37:23.573Z,18.50
2018-08-13T16:39:52.054Z,18.50
2018-08-13T16:42:20.600Z,18.50
2018-08-13T16:44:49.663Z,18.40
2018-08-13T16:47:18.443Z,18.40
2018-08-13T16:49:47.638Z,18.30
2018-08-13T16:52:16.375Z,18.30
2018-08-13T16:54:45.188Z,18.30
2018-08-13T16:57:13.682Z,18.30
2018-08-13T16:59:42.590Z,18.30
2018-08-13T17:02:11.103Z,18.40
2018-08-13T17:04:39.967Z,18.40
2018-08-13T17:07:08.547Z,18.40
2018-08-13T17:09:37.387Z,18.40
2018-08-13T17:12:05.971Z,18.40
2018-08-13T17:14:35.205Z,18.40
2018-08-13T17:17:04.157Z,18.40
2018-08-13T17:19:33.103Z,18.40
2018-08-13T17:22:02.180Z,18.40
2018-08-13T17:24:30.686Z,18.30
2018-08-13T17:26:59.600Z,18.30
2018-08-13T17:29:28.127Z,18.30
2018-08-13T17:31:56.667Z,18.30
2018-08-13T17:34:25.441Z,18.20
2018-08-13T17:36:54.449Z,18.30
2018-08-13T17:39:23.679Z,18.30
2018-08-13T17:41:52.370Z,18.30
2018-08-13T17:44:21.334Z,18.30
2018-08-13T17:46:50.095Z,18.20
2018-08-13T17:49:18.949Z,18.20
2018-08-13T17:51:47.919Z,18.20
2018-08-13T17:54:16.549Z,18.20
2018-08-13T17:56:45.347Z,18.10
2018-08-13T17:59:14.914Z,18.20
2018-08-13T18:01:44.526Z,18.30
2018-08-13T18:04:12.976Z,18.10
2018-08-13T18:06:41.715Z,18.10
2018-08-13T18:09:12.052Z,18.10
2018-08-13T18:11:41.252Z,18.10
2018-08-13T18:14:09.891Z,18.10
2018-08-13T18:16:38.593Z,18.10
2018-08-13T18:19:07.469Z,18.10
2018-08-13T18:21:36.207Z,18.10
2018-08-13T18:24:05.919Z,18.10
2018-08-13T18:26:34.967Z,18.10
2018-08-13T18:29:04.119Z,18.10
2018-08-13T18:31:32.674Z,18.10
2018-08-13T18:34:01.249Z,18.10
2018-08-13T18:36:29.869Z,18.10
2018-08-13T18:38:58.406Z,18.10
2018-08-13T18:41:27.024Z,18.10
2018-08-13T18:43:55.610Z,18.10
2018-08-13T18:46:24.154Z,18.10
2018-08-13T18:48:52.686Z,18.10
2018-08-13T18:51:21.180Z,18.10
2018-08-13T18:53:49.671Z,18.10
2018-08-13T18:56:18.251Z,18.00
2018-08-13T18:58:47.195Z,18.00
2018-08-13T19:01:15.698Z,18.00
2018-08-13T19:03:44.302Z,17.90
2018-08-13T19:06:12.920Z,17.90
2018-08-13T19:08:41.472Z,17.90
2018-08-13T19:11:10.051Z,17.80
2018-08-13T19:13:38.556Z,17.80
2018-08-13T19:16:07.202Z,17.80
2018-08-13T19:18:35.700Z,17.70
2018-08-13T19:21:04.250Z,17.70
2018-08-13T19:23:32.832Z,17.70
2018-08-13T19:26:01.327Z,17.70
2018-08-13T19:28:29.803Z,17.70
2018-08-13T19:30:58.278Z,17.70
2018-08-13T19:33:26.752Z,17.60
2018-08-13T19:35:55.253Z,17.60
2018-08-13T19:38:23.740Z,17.60
2018-08-13T19:40:52.240Z,17.60
2018-08-13T19:43:20.762Z,17.60
2018-08-13T19:45:49.268Z,17.60
2018-08-13T19:48:17.754Z,17.60
2018-08-13T19:50:46.255Z,17.60
2018-08-13T19:53:14.827Z,17.70
2018-08-13T19:55:43.450Z,17.60
2018-08-13T19:58:11.862Z,17.60
2018-08-13T20:00:40.340Z,17.60
2018-08-13T20:03:13.304Z,17.60
2018-08-13T20:05:42.358Z,17.60
2018-08-13T20:08:10.964Z,17.60
2018-08-13T20:10:39.441Z,17.60
2018-08-13T20:13:07.960Z,17.60
2018-08-13T20:15:36.527Z,17.60
2018-08-13T20:18:05.448Z,17.60
2018-08-13T20:20:34.048Z,17.60
2018-08-13T20:23:02.527Z,17.60
2018-08-13T20:25:31.084Z,17.60
2018-08-13T20:27:59.714Z,17.60
2018-08-13T20:30:28.213Z,17.60
2018-08-13T20:32:56.710Z,17.60
2018-08-13T20:35:25.221Z,17.70
2018-08-13T20:37:53.735Z,17.70
2018-08-13T20:40:22.282Z,17.70
2018-08-13T20:42:51.023Z,17.70
2018-08-13T20:45:21.301Z,17.70
2018-08-13T20:47:49.845Z,17.60
2018-08-13T20:50:23.403Z,17.70
2018-08-13T20:52:52.691Z,17.70
2018-08-13T20:55:27.863Z,17.70
2018-08-13T20:57:56.391Z,17.70
2018-08-13T21:00:26.720Z,17.70
2018-08-13T21:02:55.237Z,17.70
2018-08-13T21:05:23.694Z,17.70
2018-08-13T21:07:52.219Z,17.70
2018-08-13T21:10:23.266Z,17.70
2018-08-13T21:12:52.062Z,17.70
2018-08-13T21:15:20.593Z,17.70
2018-08-13T21:17:49.147Z,17.70
2018-08-13T21:20:27.971Z,17.60
2018-08-13T21:22:56.707Z,17.60
2018-08-13T21:25:25.326Z,17.60
2018-08-13T21:27:53.889Z,17.60
2018-08-13T21:30:22.357Z,17.50
2018-08-13T21:32:50.865Z,17.50
2018-08-13T21:35:21.790Z,17.40
2018-08-13T21:37:50.475Z,17.40
2018-08-13T21:40:19.014Z,17.40
2018-08-13T21:42:48.006Z,17.40
2018-08-13T21:45:16.458Z,17.40
2018-08-13T21:47:45.011Z,17.30
2018-08-13T21:50:16.986Z,17.30
2018-08-13T21:52:46.258Z,17.20
2018-08-13T21:55:14.750Z,17.30
2018-08-13T21:57:43.242Z,17.20
2018-08-13T22:00:29.533Z,17.20
2018-08-13T22:03:02.318Z,17.10
2018-08-13T22:05:30.877Z,17.10
2018-08-13T22:07:59.607Z,17.00
2018-08-13T22:10:28.148Z,17.00
2018-08-13T22:12:56.720Z,17.00
2018-08-13T22:15:28.636Z,16.90
2018-08-13T22:17:58.748Z,16.90
2018-08-13T22:20:27.574Z,16.90
2018-08-13T22:22:57.281Z,16.90
2018-08-13T22:25:28.571Z,16.90
2018-08-13T22:27:57.121Z,16.80
2018-08-13T22:30:25.682Z,16.80
2018-08-13T22:32:54.190Z,16.80
2018-08-13T22:35:22.711Z,16.70
2018-08-13T22:37:51.282Z,16.70
2018-08-13T22:40:20.837Z,16.70
2018-08-13T22:42:49.365Z,16.70
2018-08-13T22:45:26.044Z,16.70
2018-08-13T22:47:54.555Z,16.60
2018-08-13T22:50:23.061Z,16.60
2018-08-13T22:52:51.568Z,16.60
2018-08-13T22:55:20.096Z,16.60
2018-08-13T22:57:48.852Z,16.60
2018-08-13T23:00:18.547Z,16.60
2018-08-13T23:02:47.880Z,16.50
2018-08-13T23:05:19.183Z,16.50
2018-08-13T23:07:47.719Z,16.50
2018-08-13T23:10:17.596Z,16.40
2018-08-13T23:12:47.106Z,16.40
2018-08-13T23:15:16.298Z,16.40
2018-08-13T23:17:45.145Z,16.40
2018-08-13T23:20:22.316Z,16.40
2018-08-13T23:22:56.011Z,16.40
2018-08-13T23:25:25.119Z,16.40
2018-08-13T23:27:54.922Z,16.40
2018-08-13T23:30:23.507Z,16.40
2018-08-13T23:32:53.454Z,16.40
2018-08-13T23:35:22.804Z,16.40
2018-08-13T23:37:51.650Z,16.40
2018-08-13T23:40:20.196Z,16.40
2018-08-13T23:42:48.744Z,16.40
2018-08-13T23:45:18.752Z,16.30
2018-08-13T23:47:47.439Z,16.30
2018-08-13T23:50:19.802Z,16.30
2018-08-13T23:52:49.735Z,16.30
2018-08-13T23:55:23.352Z,16.30
2018-08-13T23:57:51.882Z,16.40
